sensor_id;sensor_type;location;lat;lon;timestamp;temperature;humidity
1453;DHT22;720;47.738;7.998;2022-08-04T00:01:12;19.90;90.60
1453;DHT22;720;47.738;7.998;2022-08-04T00:04:33;19.90;90.50
1453;DHT22;720;47.738;7.998;2022-08-04T00:06:58;19.90;90.90
1453;DHT22;720;47.738;7.998;2022-08-04T00:09:29;19.80;90.80
1453;DHT22;720;47.738;7.998;2022-08-04T00:11:56;19.70;90.90
1453;DHT22;720;47.738;7.998;2022-08-04T00:14:24;19.60;91.30
1453;DHT22;720;47.738;7.998;2022-08-04T00:16:51;19.60;91.50
1453;DHT22;720;47.738;7.998;2022-08-04T00:19:46;19.60;91.30
1453;DHT22;720;47.738;7.998;2022-08-04T00:22:12;19.60;91.40
1453;DHT22;720;47.738;7.998;2022-08-04T00:24:39;19.60;90.90
1453;DHT22;720;47.738;7.998;2022-08-04T00:27:06;19.70;91.00
1453;DHT22;720;47.738;7.998;2022-08-04T00:29:33;19.70;91.00
1453;DHT22;720;47.738;7.998;2022-08-04T00:32:01;19.60;91.50
1453;DHT22;720;47.738;7.998;2022-08-04T00:34:28;19.50;91.70
1453;DHT22;720;47.738;7.998;2022-08-04T00:36:56;19.50;91.90
1453;DHT22;720;47.738;7.998;2022-08-04T00:39:23;19.50;91.80
1453;DHT22;720;47.738;7.998;2022-08-04T00:48:01;19.70;91.90
1453;DHT22;720;47.738;7.998;2022-08-04T00:50:20;19.70;91.80
1453;DHT22;720;47.738;7.998;2022-08-04T00:58:37;19.50;92.30
1453;DHT22;720;47.738;7.998;2022-08-04T01:07:21;19.50;92.80
1453;DHT22;720;47.738;7.998;2022-08-04T01:12:39;19.50;92.30
1453;DHT22;720;47.738;7.998;2022-08-04T01:15:38;19.50;92.50
1453;DHT22;720;47.738;7.998;2022-08-04T01:18:07;19.60;92.00
1453;DHT22;720;47.738;7.998;2022-08-04T01:29:10;19.60;91.70
1453;DHT22;720;47.738;7.998;2022-08-04T01:34:21;19.50;92.10
1453;DHT22;720;47.738;7.998;2022-08-04T01:37:03;19.50;92.60
1453;DHT22;720;47.738;7.998;2022-08-04T01:39:35;19.50;92.60
1453;DHT22;720;47.738;7.998;2022-08-04T01:42:09;19.50;92.40
1453;DHT22;720;47.738;7.998;2022-08-04T01:44:36;19.50;92.70
1453;DHT22;720;47.738;7.998;2022-08-04T01:47:02;19.30;92.60
1453;DHT22;720;47.738;7.998;2022-08-04T01:49:30;19.30;93.10
1453;DHT22;720;47.738;7.998;2022-08-04T01:51:56;19.30;93.00
1453;DHT22;720;47.738;7.998;2022-08-04T01:54:22;19.20;93.20
1453;DHT22;720;47.738;7.998;2022-08-04T01:56:50;19.30;93.40
1453;DHT22;720;47.738;7.998;2022-08-04T01:59:20;19.30;93.30
1453;DHT22;720;47.738;7.998;2022-08-04T02:01:47;19.30;92.80
1453;DHT22;720;47.738;7.998;2022-08-04T02:04:17;19.30;92.60
1453;DHT22;720;47.738;7.998;2022-08-04T02:07:01;19.30;92.20
1453;DHT22;720;47.738;7.998;2022-08-04T02:12:14;19.40;92.20
1453;DHT22;720;47.738;7.998;2022-08-04T02:14:56;19.50;92.80
1453;DHT22;720;47.738;7.998;2022-08-04T02:17:25;19.40;92.90
1453;DHT22;720;47.738;7.998;2022-08-04T02:20:14;19.40;93.00
1453;DHT22;720;47.738;7.998;2022-08-04T02:22:58;19.30;92.70
1453;DHT22;720;47.738;7.998;2022-08-04T02:25:26;19.30;92.70
1453;DHT22;720;47.738;7.998;2022-08-04T02:31:10;19.50;92.90
1453;DHT22;720;47.738;7.998;2022-08-04T02:33:46;19.40;92.90
1453;DHT22;720;47.738;7.998;2022-08-04T02:36:20;19.30;93.30
1453;DHT22;720;47.738;7.998;2022-08-04T02:38:55;19.30;93.70
1453;DHT22;720;47.738;7.998;2022-08-04T02:41:25;19.30;93.90
1453;DHT22;720;47.738;7.998;2022-08-04T02:43:55;19.20;93.90
1453;DHT22;720;47.738;7.998;2022-08-04T02:46:21;19.20;93.80
1453;DHT22;720;47.738;7.998;2022-08-04T02:48:48;19.10;93.70
1453;DHT22;720;47.738;7.998;2022-08-04T02:51:16;19.20;93.40
1453;DHT22;720;47.738;7.998;2022-08-04T02:53:42;19.10;93.40
1453;DHT22;720;47.738;7.998;2022-08-04T02:56:08;19.20;93.80
1453;DHT22;720;47.738;7.998;2022-08-04T02:58:36;19.10;93.90
1453;DHT22;720;47.738;7.998;2022-08-04T03:01:03;19.20;94.30
1453;DHT22;720;47.738;7.998;2022-08-04T03:06:27;19.10;94.50
1453;DHT22;720;47.738;7.998;2022-08-04T03:09:21;19.00;94.60
1453;DHT22;720;47.738;7.998;2022-08-04T03:30:22;18.80;95.00
1453;DHT22;720;47.738;7.998;2022-08-04T03:33:03;18.90;95.00
1453;DHT22;720;47.738;7.998;2022-08-04T03:44:12;18.80;95.40
1453;DHT22;720;47.738;7.998;2022-08-04T03:52:24;18.80;95.40
1453;DHT22;720;47.738;7.998;2022-08-04T03:58:38;18.70;95.80
1453;DHT22;720;47.738;7.998;2022-08-04T04:04:02;18.70;96.10
1453;DHT22;720;47.738;7.998;2022-08-04T04:12:40;18.80;95.90
1453;DHT22;720;47.738;7.998;2022-08-04T04:47:01;18.90;96.40
1453;DHT22;720;47.738;7.998;2022-08-04T04:49:53;18.80;96.50
1453;DHT22;720;47.738;7.998;2022-08-04T04:52:52;18.90;96.50
1453;DHT22;720;47.738;7.998;2022-08-04T04:55:27;18.90;96.30
1453;DHT22;720;47.738;7.998;2022-08-04T04:57:57;19.00;96.60
1453;DHT22;720;47.738;7.998;2022-08-04T05:00:33;19.00;96.60
1453;DHT22;720;47.738;7.998;2022-08-04T05:03:40;19.10;96.50
1453;DHT22;720;47.738;7.998;2022-08-04T05:13:58;20.40;95.90
1453;DHT22;720;47.738;7.998;2022-08-04T05:16:38;20.60;95.60
1453;DHT22;720;47.738;7.998;2022-08-04T05:21:55;21.10;94.90
1453;DHT22;720;47.738;7.998;2022-08-04T05:24:24;21.40;94.60
1453;DHT22;720;47.738;7.998;2022-08-04T05:26:54;21.60;94.20
1453;DHT22;720;47.738;7.998;2022-08-04T05:29:30;21.80;93.50
1453;DHT22;720;47.738;7.998;2022-08-04T05:32:00;22.30;93.00
1453;DHT22;720;47.738;7.998;2022-08-04T05:34:39;23.00;92.00
1453;DHT22;720;47.738;7.998;2022-08-04T05:37:10;23.70;90.90
1453;DHT22;720;47.738;7.998;2022-08-04T05:39:49;24.60;88.90
1453;DHT22;720;47.738;7.998;2022-08-04T05:42:18;25.30;85.90
1453;DHT22;720;47.738;7.998;2022-08-04T05:44:45;25.50;84.40
1453;DHT22;720;47.738;7.998;2022-08-04T05:47:11;25.40;83.60
1453;DHT22;720;47.738;7.998;2022-08-04T05:49:38;25.30;83.60
1453;DHT22;720;47.738;7.998;2022-08-04T05:52:07;25.50;82.70
1453;DHT22;720;47.738;7.998;2022-08-04T05:54:35;25.40;82.90
1453;DHT22;720;47.738;7.998;2022-08-04T05:57:03;25.20;84.30
1453;DHT22;720;47.738;7.998;2022-08-04T05:59:30;25.00;84.10
1453;DHT22;720;47.738;7.998;2022-08-04T06:01:58;25.00;83.80
1453;DHT22;720;47.738;7.998;2022-08-04T06:04:37;25.00;84.70
1453;DHT22;720;47.738;7.998;2022-08-04T06:07:03;24.90;84.80
1453;DHT22;720;47.738;7.998;2022-08-04T06:09:30;24.90;85.50
1453;DHT22;720;47.738;7.998;2022-08-04T06:12:02;25.20;83.90
1453;DHT22;720;47.738;7.998;2022-08-04T06:14:36;25.70;82.40
1453;DHT22;720;47.738;7.998;2022-08-04T06:17:05;26.20;81.80
1453;DHT22;720;47.738;7.998;2022-08-04T06:19:34;26.70;81.40
1453;DHT22;720;47.738;7.998;2022-08-04T06:22:03;27.00;79.40
1453;DHT22;720;47.738;7.998;2022-08-04T06:24:30;27.10;77.30
1453;DHT22;720;47.738;7.998;2022-08-04T06:26:57;27.10;78.20
1453;DHT22;720;47.738;7.998;2022-08-04T06:29:24;26.90;78.40
1453;DHT22;720;47.738;7.998;2022-08-04T06:32:02;26.80;78.60
1453;DHT22;720;47.738;7.998;2022-08-04T06:34:39;26.70;79.30
1453;DHT22;720;47.738;7.998;2022-08-04T06:37:06;26.80;79.50
1453;DHT22;720;47.738;7.998;2022-08-04T06:39:32;26.80;79.40
1453;DHT22;720;47.738;7.998;2022-08-04T06:42:00;26.80;80.20
1453;DHT22;720;47.738;7.998;2022-08-04T06:44:27;26.80;80.20
1453;DHT22;720;47.738;7.998;2022-08-04T06:46:54;27.00;80.10
1453;DHT22;720;47.738;7.998;2022-08-04T06:49:21;27.60;78.90
1453;DHT22;720;47.738;7.998;2022-08-04T06:51:48;28.70;76.70
1453;DHT22;720;47.738;7.998;2022-08-04T06:54:15;29.90;70.90
1453;DHT22;720;47.738;7.998;2022-08-04T06:56:42;30.90;68.60
1453;DHT22;720;47.738;7.998;2022-08-04T06:59:10;31.80;65.70
1453;DHT22;720;47.738;7.998;2022-08-04T07:01:36;32.30;62.80
1453;DHT22;720;47.738;7.998;2022-08-04T07:04:03;32.40;61.40
1453;DHT22;720;47.738;7.998;2022-08-04T07:06:29;32.20;61.30
1453;DHT22;720;47.738;7.998;2022-08-04T07:08:56;31.90;61.50
1453;DHT22;720;47.738;7.998;2022-08-04T07:11:22;31.50;62.30
1453;DHT22;720;47.738;7.998;2022-08-04T07:13:49;31.20;63.50
1453;DHT22;720;47.738;7.998;2022-08-04T07:16:16;30.90;64.70
1453;DHT22;720;47.738;7.998;2022-08-04T07:18:43;30.80;63.90
1453;DHT22;720;47.738;7.998;2022-08-04T07:21:08;31.00;63.40
1453;DHT22;720;47.738;7.998;2022-08-04T07:23:36;31.40;63.40
1453;DHT22;720;47.738;7.998;2022-08-04T07:26:02;32.00;60.80
1453;DHT22;720;47.738;7.998;2022-08-04T07:28:29;32.50;58.50
1453;DHT22;720;47.738;7.998;2022-08-04T07:30:56;33.20;55.90
1453;DHT22;720;47.738;7.998;2022-08-04T07:33:22;34.00;54.50
1453;DHT22;720;47.738;7.998;2022-08-04T07:35:51;35.50;50.80
1453;DHT22;720;47.738;7.998;2022-08-04T07:38:17;37.30;48.00
1453;DHT22;720;47.738;7.998;2022-08-04T07:40:43;38.70;43.10
1453;DHT22;720;47.738;7.998;2022-08-04T07:43:10;40.30;40.40
1453;DHT22;720;47.738;7.998;2022-08-04T07:45:36;41.60;38.00
1453;DHT22;720;47.738;7.998;2022-08-04T07:48:02;42.00;35.60
1453;DHT22;720;47.738;7.998;2022-08-04T07:50:30;42.90;33.40
1453;DHT22;720;47.738;7.998;2022-08-04T07:52:56;43.50;31.70
1453;DHT22;720;47.738;7.998;2022-08-04T07:55:22;44.10;31.40
1453;DHT22;720;47.738;7.998;2022-08-04T07:57:48;44.90;29.70
1453;DHT22;720;47.738;7.998;2022-08-04T08:00:14;45.50;29.00
1453;DHT22;720;47.738;7.998;2022-08-04T08:02:48;46.00;27.20
1453;DHT22;720;47.738;7.998;2022-08-04T08:05:16;45.90;26.50
1453;DHT22;720;47.738;7.998;2022-08-04T08:07:49;45.10;26.00
1453;DHT22;720;47.738;7.998;2022-08-04T08:10:16;45.20;26.30
1453;DHT22;720;47.738;7.998;2022-08-04T08:12:43;43.30;26.30
1453;DHT22;720;47.738;7.998;2022-08-04T08:15:10;42.70;27.50
1453;DHT22;720;47.738;7.998;2022-08-04T08:17:38;42.90;27.30
1453;DHT22;720;47.738;7.998;2022-08-04T08:20:08;43.50;27.50
1453;DHT22;720;47.738;7.998;2022-08-04T08:22:38;44.30;26.90
1453;DHT22;720;47.738;7.998;2022-08-04T08:25:07;45.10;26.40
1453;DHT22;720;47.738;7.998;2022-08-04T08:27:33;44.40;26.00
1453;DHT22;720;47.738;7.998;2022-08-04T08:29:59;44.60;26.50
1453;DHT22;720;47.738;7.998;2022-08-04T08:32:25;44.50;26.40
1453;DHT22;720;47.738;7.998;2022-08-04T08:34:51;41.70;26.70
1453;DHT22;720;47.738;7.998;2022-08-04T08:37:51;40.60;28.50
1453;DHT22;720;47.738;7.998;2022-08-04T08:41:06;41.30;28.50
1453;DHT22;720;47.738;7.998;2022-08-04T08:43:35;41.90;27.90
1453;DHT22;720;47.738;7.998;2022-08-04T08:52:14;44.80;26.70
1453;DHT22;720;47.738;7.998;2022-08-04T08:54:46;45.50;26.10
1453;DHT22;720;47.738;7.998;2022-08-04T09:00:15;46.40;25.50
1453;DHT22;720;47.738;7.998;2022-08-04T09:03:04;46.50;24.80
1453;DHT22;720;47.738;7.998;2022-08-04T09:11:02;44.80;25.60
1453;DHT22;720;47.738;7.998;2022-08-04T09:13:53;44.60;25.40
1453;DHT22;720;47.738;7.998;2022-08-04T09:16:41;44.70;25.60
1453;DHT22;720;47.738;7.998;2022-08-04T09:19:16;44.90;25.70
1453;DHT22;720;47.738;7.998;2022-08-04T09:27:00;45.30;25.40
1453;DHT22;720;47.738;7.998;2022-08-04T09:46:09;44.00;26.10
1453;DHT22;720;47.738;7.998;2022-08-04T09:54:16;44.40;25.90
1453;DHT22;720;47.738;7.998;2022-08-04T09:59:56;43.40;25.80
1453;DHT22;720;47.738;7.998;2022-08-04T10:02:23;42.30;26.80
1453;DHT22;720;47.738;7.998;2022-08-04T10:04:54;42.50;27.30
1453;DHT22;720;47.738;7.998;2022-08-04T10:13:04;42.80;27.50
1453;DHT22;720;47.738;7.998;2022-08-04T10:15:39;42.10;27.80
1453;DHT22;720;47.738;7.998;2022-08-04T10:29:31;41.00;27.30
1453;DHT22;720;47.738;7.998;2022-08-04T10:32:22;40.60;26.90
1453;DHT22;720;47.738;7.998;2022-08-04T10:37:24;40.70;27.90
1453;DHT22;720;47.738;7.998;2022-08-04T10:39:54;40.40;27.90
1453;DHT22;720;47.738;7.998;2022-08-04T10:42:57;38.80;27.30
1453;DHT22;720;47.738;7.998;2022-08-04T10:54:07;38.80;28.30
1453;DHT22;720;47.738;7.998;2022-08-04T10:56:47;38.10;27.80
1453;DHT22;720;47.738;7.998;2022-08-04T10:59:32;38.00;28.60
1453;DHT22;720;47.738;7.998;2022-08-04T11:02:10;37.90;29.00
1453;DHT22;720;47.738;7.998;2022-08-04T11:04:46;37.70;28.10
1453;DHT22;720;47.738;7.998;2022-08-04T11:07:14;37.60;28.50
1453;DHT22;720;47.738;7.998;2022-08-04T11:09:43;37.00;28.30
1453;DHT22;720;47.738;7.998;2022-08-04T11:15:05;36.30;29.30
1453;DHT22;720;47.738;7.998;2022-08-04T11:17:41;35.80;28.90
1453;DHT22;720;47.738;7.998;2022-08-04T11:23:07;35.20;29.70
1453;DHT22;720;47.738;7.998;2022-08-04T11:31:07;35.30;30.90
1453;DHT22;720;47.738;7.998;2022-08-04T11:33:45;35.30;30.10
1453;DHT22;720;47.738;7.998;2022-08-04T11:36:35;35.50;30.40
1453;DHT22;720;47.738;7.998;2022-08-04T11:39:28;35.20;29.60
1453;DHT22;720;47.738;7.998;2022-08-04T11:42:12;34.60;30.20
1453;DHT22;720;47.738;7.998;2022-08-04T11:44:44;34.70;32.10
1453;DHT22;720;47.738;7.998;2022-08-04T11:47:28;34.90;31.40
1453;DHT22;720;47.738;7.998;2022-08-04T11:50:13;35.00;30.10
1453;DHT22;720;47.738;7.998;2022-08-04T11:52:45;34.90;29.90
1453;DHT22;720;47.738;7.998;2022-08-04T11:55:15;34.80;29.60
1453;DHT22;720;47.738;7.998;2022-08-04T11:57:42;35.00;30.00
1453;DHT22;720;47.738;7.998;2022-08-04T12:00:13;35.00;31.00
1453;DHT22;720;47.738;7.998;2022-08-04T12:05:09;35.00;29.70
1453;DHT22;720;47.738;7.998;2022-08-04T12:15:49;34.50;31.50
1453;DHT22;720;47.738;7.998;2022-08-04T12:21:06;34.70;29.80
1453;DHT22;720;47.738;7.998;2022-08-04T12:23:38;34.60;29.50
1453;DHT22;720;47.738;7.998;2022-08-04T12:26:28;34.60;29.20
1453;DHT22;720;47.738;7.998;2022-08-04T12:28:58;34.50;28.70
1453;DHT22;720;47.738;7.998;2022-08-04T12:31:33;34.40;28.60
1453;DHT22;720;47.738;7.998;2022-08-04T12:37:04;34.30;28.70
1453;DHT22;720;47.738;7.998;2022-08-04T12:39:32;34.20;29.20
1453;DHT22;720;47.738;7.998;2022-08-04T12:42:06;34.30;28.20
1453;DHT22;720;47.738;7.998;2022-08-04T12:44:37;34.40;28.20
1453;DHT22;720;47.738;7.998;2022-08-04T12:47:10;34.10;27.70
1453;DHT22;720;47.738;7.998;2022-08-04T12:49:38;34.00;29.10
1453;DHT22;720;47.738;7.998;2022-08-04T12:52:07;33.90;29.00
1453;DHT22;720;47.738;7.998;2022-08-04T12:54:35;33.80;28.60
1453;DHT22;720;47.738;7.998;2022-08-04T12:57:05;33.70;28.90
1453;DHT22;720;47.738;7.998;2022-08-04T12:59:43;33.80;28.40
1453;DHT22;720;47.738;7.998;2022-08-04T13:02:23;33.90;28.80
1453;DHT22;720;47.738;7.998;2022-08-04T13:04:49;33.90;29.50
1453;DHT22;720;47.738;7.998;2022-08-04T13:07:18;33.90;29.70
1453;DHT22;720;47.738;7.998;2022-08-04T13:09:45;33.80;29.00
1453;DHT22;720;47.738;7.998;2022-08-04T13:12:13;33.70;29.00
1453;DHT22;720;47.738;7.998;2022-08-04T13:14:41;33.70;28.40
1453;DHT22;720;47.738;7.998;2022-08-04T13:17:10;33.70;29.70
1453;DHT22;720;47.738;7.998;2022-08-04T13:19:36;33.70;29.50
1453;DHT22;720;47.738;7.998;2022-08-04T13:22:03;33.80;29.80
1453;DHT22;720;47.738;7.998;2022-08-04T13:24:31;33.80;28.90
1453;DHT22;720;47.738;7.998;2022-08-04T13:27:01;33.70;29.00
1453;DHT22;720;47.738;7.998;2022-08-04T13:29:38;33.60;29.30
1453;DHT22;720;47.738;7.998;2022-08-04T13:32:05;33.60;28.60
1453;DHT22;720;47.738;7.998;2022-08-04T13:34:33;33.50;28.90
1453;DHT22;720;47.738;7.998;2022-08-04T13:37:01;33.40;28.10
1453;DHT22;720;47.738;7.998;2022-08-04T13:39:28;33.30;27.30
1453;DHT22;720;47.738;7.998;2022-08-04T13:41:57;33.20;27.20
1453;DHT22;720;47.738;7.998;2022-08-04T13:44:38;33.20;27.00
1453;DHT22;720;47.738;7.998;2022-08-04T13:47:09;33.00;26.60
1453;DHT22;720;47.738;7.998;2022-08-04T13:49:36;33.10;27.70
1453;DHT22;720;47.738;7.998;2022-08-04T13:52:04;33.20;26.10
1453;DHT22;720;47.738;7.998;2022-08-04T13:54:42;33.20;25.90
1453;DHT22;720;47.738;7.998;2022-08-04T13:57:21;33.20;27.10
1453;DHT22;720;47.738;7.998;2022-08-04T13:59:51;33.20;28.90
1453;DHT22;720;47.738;7.998;2022-08-04T14:02:45;33.10;28.40
1453;DHT22;720;47.738;7.998;2022-08-04T14:05:25;33.20;27.90
1453;DHT22;720;47.738;7.998;2022-08-04T14:08:08;33.00;27.30
1453;DHT22;720;47.738;7.998;2022-08-04T14:10:36;32.80;29.00
1453;DHT22;720;47.738;7.998;2022-08-04T14:13:04;32.70;27.00
1453;DHT22;720;47.738;7.998;2022-08-04T14:15:42;32.70;28.20
1453;DHT22;720;47.738;7.998;2022-08-04T14:18:27;32.70;28.20
1453;DHT22;720;47.738;7.998;2022-08-04T14:23:24;32.70;29.90
1453;DHT22;720;47.738;7.998;2022-08-04T14:25:50;32.50;27.90
1453;DHT22;720;47.738;7.998;2022-08-04T14:28:30;32.40;25.30
1453;DHT22;720;47.738;7.998;2022-08-04T14:31:16;32.50;27.40
1453;DHT22;720;47.738;7.998;2022-08-04T14:33:44;32.50;25.50
1453;DHT22;720;47.738;7.998;2022-08-04T14:36:10;32.40;24.90
1453;DHT22;720;47.738;7.998;2022-08-04T14:38:56;32.40;27.60
1453;DHT22;720;47.738;7.998;2022-08-04T14:43:51;32.50;27.20
1453;DHT22;720;47.738;7.998;2022-08-04T14:46:17;32.40;27.50
1453;DHT22;720;47.738;7.998;2022-08-04T14:49:21;32.40;26.90
1453;DHT22;720;47.738;7.998;2022-08-04T14:51:55;32.40;30.30
1453;DHT22;720;47.738;7.998;2022-08-04T14:54:30;32.10;27.40
1453;DHT22;720;47.738;7.998;2022-08-04T14:57:02;32.00;29.30
1453;DHT22;720;47.738;7.998;2022-08-04T14:59:46;32.00;28.30
1453;DHT22;720;47.738;7.998;2022-08-04T15:02:13;32.00;29.00
1453;DHT22;720;47.738;7.998;2022-08-04T15:04:40;31.80;27.00
1453;DHT22;720;47.738;7.998;2022-08-04T15:07:09;31.80;26.90
1453;DHT22;720;47.738;7.998;2022-08-04T15:09:35;31.70;29.00
1453;DHT22;720;47.738;7.998;2022-08-04T15:12:02;31.60;26.30
1453;DHT22;720;47.738;7.998;2022-08-04T15:14:30;31.60;28.80
1453;DHT22;720;47.738;7.998;2022-08-04T15:16:57;31.50;27.10
1453;DHT22;720;47.738;7.998;2022-08-04T15:19:23;31.40;26.90
1453;DHT22;720;47.738;7.998;2022-08-04T15:21:50;31.30;27.80
1453;DHT22;720;47.738;7.998;2022-08-04T15:24:16;31.20;28.20
1453;DHT22;720;47.738;7.998;2022-08-04T15:26:46;31.10;26.40
1453;DHT22;720;47.738;7.998;2022-08-04T15:29:18;30.90;28.20
1453;DHT22;720;47.738;7.998;2022-08-04T15:31:45;30.70;30.50
1453;DHT22;720;47.738;7.998;2022-08-04T15:34:12;30.40;31.10
1453;DHT22;720;47.738;7.998;2022-08-04T15:39:34;29.90;32.00
1453;DHT22;720;47.738;7.998;2022-08-04T15:42:31;29.70;33.00
1453;DHT22;720;47.738;7.998;2022-08-04T15:45:19;29.50;31.20
1453;DHT22;720;47.738;7.998;2022-08-04T15:53:25;29.60;29.20
1453;DHT22;720;47.738;7.998;2022-08-04T15:55:52;29.70;30.40
1453;DHT22;720;47.738;7.998;2022-08-04T15:58:18;29.60;30.70
1453;DHT22;720;47.738;7.998;2022-08-04T16:05:58;29.30;32.80
1453;DHT22;720;47.738;7.998;2022-08-04T16:08:23;29.10;32.30
1453;DHT22;720;47.738;7.998;2022-08-04T16:10:50;29.10;31.80
1453;DHT22;720;47.738;7.998;2022-08-04T16:13:21;29.00;33.20
1453;DHT22;720;47.738;7.998;2022-08-04T16:15:55;28.90;33.20
1453;DHT22;720;47.738;7.998;2022-08-04T16:21:03;28.80;32.40
1453;DHT22;720;47.738;7.998;2022-08-04T16:26:09;28.70;32.70
1453;DHT22;720;47.738;7.998;2022-08-04T16:28:36;28.70;33.40
1453;DHT22;720;47.738;7.998;2022-08-04T16:31:09;28.70;32.20
1453;DHT22;720;47.738;7.998;2022-08-04T16:33:36;28.60;34.50
1453;DHT22;720;47.738;7.998;2022-08-04T16:36:05;28.50;33.60
1453;DHT22;720;47.738;7.998;2022-08-04T16:38:31;28.40;33.40
1453;DHT22;720;47.738;7.998;2022-08-04T16:41:02;28.40;32.40
1453;DHT22;720;47.738;7.998;2022-08-04T16:43:29;28.40;36.00
1453;DHT22;720;47.738;7.998;2022-08-04T16:46:01;28.40;36.60
1453;DHT22;720;47.738;7.998;2022-08-04T16:48:34;28.40;36.00
1453;DHT22;720;47.738;7.998;2022-08-04T16:51:04;28.40;34.30
1453;DHT22;720;47.738;7.998;2022-08-04T16:53:44;28.30;34.30
1453;DHT22;720;47.738;7.998;2022-08-04T16:56:11;28.30;33.90
1453;DHT22;720;47.738;7.998;2022-08-04T16:58:39;28.20;34.90
1453;DHT22;720;47.738;7.998;2022-08-04T17:01:09;28.20;34.80
1453;DHT22;720;47.738;7.998;2022-08-04T17:03:39;28.30;36.10
1453;DHT22;720;47.738;7.998;2022-08-04T17:06:12;28.20;37.00
1453;DHT22;720;47.738;7.998;2022-08-04T17:08:42;28.20;34.60
1453;DHT22;720;47.738;7.998;2022-08-04T17:11:10;28.10;36.80
1453;DHT22;720;47.738;7.998;2022-08-04T17:13:38;28.10;35.70
1453;DHT22;720;47.738;7.998;2022-08-04T17:16:06;28.00;36.60
1453;DHT22;720;47.738;7.998;2022-08-04T17:18:35;28.00;35.80
1453;DHT22;720;47.738;7.998;2022-08-04T17:21:06;28.00;35.90
1453;DHT22;720;47.738;7.998;2022-08-04T17:23:44;28.00;35.50
1453;DHT22;720;47.738;7.998;2022-08-04T17:26:18;28.10;36.10
1453;DHT22;720;47.738;7.998;2022-08-04T17:28:47;28.00;37.00
1453;DHT22;720;47.738;7.998;2022-08-04T17:31:13;28.00;37.90
1453;DHT22;720;47.738;7.998;2022-08-04T17:33:44;27.90;37.80
1453;DHT22;720;47.738;7.998;2022-08-04T17:36:11;27.90;37.30
1453;DHT22;720;47.738;7.998;2022-08-04T17:38:47;27.90;37.90
1453;DHT22;720;47.738;7.998;2022-08-04T17:41:15;27.90;37.70
1453;DHT22;720;47.738;7.998;2022-08-04T17:43:48;27.90;38.50
1453;DHT22;720;47.738;7.998;2022-08-04T17:51:22;27.80;38.30
1453;DHT22;720;47.738;7.998;2022-08-04T17:53:56;27.70;38.70
1453;DHT22;720;47.738;7.998;2022-08-04T17:56:35;27.60;39.10
1453;DHT22;720;47.738;7.998;2022-08-04T18:07:06;27.30;39.00
1453;DHT22;720;47.738;7.998;2022-08-04T18:09:52;27.30;39.90
1453;DHT22;720;47.738;7.998;2022-08-04T18:14:59;27.40;41.20
1453;DHT22;720;47.738;7.998;2022-08-04T18:17:33;27.30;41.50
1453;DHT22;720;47.738;7.998;2022-08-04T18:20:02;27.30;41.90
1453;DHT22;720;47.738;7.998;2022-08-04T18:22:29;27.30;42.00
1453;DHT22;720;47.738;7.998;2022-08-04T18:24:55;27.20;42.50
1453;DHT22;720;47.738;7.998;2022-08-04T18:27:25;27.10;44.00
1453;DHT22;720;47.738;7.998;2022-08-04T18:29:52;27.00;43.10
1453;DHT22;720;47.738;7.998;2022-08-04T18:32:19;26.80;43.70
1453;DHT22;720;47.738;7.998;2022-08-04T18:34:48;26.70;43.10
1453;DHT22;720;47.738;7.998;2022-08-04T18:37:14;26.70;43.50
1453;DHT22;720;47.738;7.998;2022-08-04T18:39:40;26.50;44.00
1453;DHT22;720;47.738;7.998;2022-08-04T18:42:05;26.50;44.50
1453;DHT22;720;47.738;7.998;2022-08-04T18:44:32;26.40;43.50
1453;DHT22;720;47.738;7.998;2022-08-04T18:46:59;26.20;44.20
1453;DHT22;720;47.738;7.998;2022-08-04T18:49:25;26.10;44.60
1453;DHT22;720;47.738;7.998;2022-08-04T18:51:54;26.00;44.60
1453;DHT22;720;47.738;7.998;2022-08-04T18:54:24;26.00;44.70
1453;DHT22;720;47.738;7.998;2022-08-04T18:56:51;25.90;45.30
1453;DHT22;720;47.738;7.998;2022-08-04T18:59:17;25.80;44.40
1453;DHT22;720;47.738;7.998;2022-08-04T19:01:43;25.70;44.30
1453;DHT22;720;47.738;7.998;2022-08-04T19:04:09;25.60;46.20
1453;DHT22;720;47.738;7.998;2022-08-04T19:06:36;25.50;45.90
1453;DHT22;720;47.738;7.998;2022-08-04T19:09:03;25.40;45.20
1453;DHT22;720;47.738;7.998;2022-08-04T19:11:30;25.30;46.40
1453;DHT22;720;47.738;7.998;2022-08-04T19:13:58;25.30;46.70
1453;DHT22;720;47.738;7.998;2022-08-04T19:16:24;25.20;47.20
1453;DHT22;720;47.738;7.998;2022-08-04T19:18:50;25.10;47.70
1453;DHT22;720;47.738;7.998;2022-08-04T19:21:15;25.10;47.30
1453;DHT22;720;47.738;7.998;2022-08-04T19:23:41;25.10;47.00
1453;DHT22;720;47.738;7.998;2022-08-04T19:26:07;25.10;45.90
1453;DHT22;720;47.738;7.998;2022-08-04T19:28:34;25.00;47.30
1453;DHT22;720;47.738;7.998;2022-08-04T19:31:03;25.00;47.00
1453;DHT22;720;47.738;7.998;2022-08-04T19:33:30;24.90;45.60
1453;DHT22;720;47.738;7.998;2022-08-04T19:35:55;24.90;45.00
1453;DHT22;720;47.738;7.998;2022-08-04T19:38:21;24.90;46.10
1453;DHT22;720;47.738;7.998;2022-08-04T19:40:47;24.90;45.70
1453;DHT22;720;47.738;7.998;2022-08-04T19:43:13;24.90;45.20
1453;DHT22;720;47.738;7.998;2022-08-04T19:45:38;24.80;46.40
1453;DHT22;720;47.738;7.998;2022-08-04T19:48:04;24.80;46.50
1453;DHT22;720;47.738;7.998;2022-08-04T19:50:31;24.70;46.90
1453;DHT22;720;47.738;7.998;2022-08-04T19:52:57;24.70;48.50
1453;DHT22;720;47.738;7.998;2022-08-04T19:55:24;24.70;47.20
1453;DHT22;720;47.738;7.998;2022-08-04T19:57:50;24.70;46.40
1453;DHT22;720;47.738;7.998;2022-08-04T20:00:18;24.80;46.10
1453;DHT22;720;47.738;7.998;2022-08-04T20:02:44;24.80;46.80
1453;DHT22;720;47.738;7.998;2022-08-04T20:05:10;24.80;47.40
1453;DHT22;720;47.738;7.998;2022-08-04T20:07:37;24.70;47.70
1453;DHT22;720;47.738;7.998;2022-08-04T20:10:06;24.70;48.70
1453;DHT22;720;47.738;7.998;2022-08-04T20:12:33;24.60;49.20
1453;DHT22;720;47.738;7.998;2022-08-04T20:14:58;24.50;49.60
1453;DHT22;720;47.738;7.998;2022-08-04T20:17:24;24.50;48.30
1453;DHT22;720;47.738;7.998;2022-08-04T20:19:50;24.50;48.90
1453;DHT22;720;47.738;7.998;2022-08-04T20:22:16;24.40;48.40
1453;DHT22;720;47.738;7.998;2022-08-04T20:24:45;24.40;47.70
1453;DHT22;720;47.738;7.998;2022-08-04T20:27:12;24.40;48.30
1453;DHT22;720;47.738;7.998;2022-08-04T20:29:38;24.40;48.60
1453;DHT22;720;47.738;7.998;2022-08-04T20:32:04;24.40;48.60
1453;DHT22;720;47.738;7.998;2022-08-04T20:34:29;24.40;48.30
1453;DHT22;720;47.738;7.998;2022-08-04T20:36:55;24.40;49.90
1453;DHT22;720;47.738;7.998;2022-08-04T20:39:21;24.40;50.10
1453;DHT22;720;47.738;7.998;2022-08-04T20:41:47;24.40;50.50
1453;DHT22;720;47.738;7.998;2022-08-04T20:44:13;24.30;51.20
1453;DHT22;720;47.738;7.998;2022-08-04T20:46:39;24.40;50.80
1453;DHT22;720;47.738;7.998;2022-08-04T20:49:04;24.50;50.90
1453;DHT22;720;47.738;7.998;2022-08-04T20:51:30;24.40;51.20
1453;DHT22;720;47.738;7.998;2022-08-04T20:53:56;24.30;50.70
1453;DHT22;720;47.738;7.998;2022-08-04T20:56:21;24.30;50.30
1453;DHT22;720;47.738;7.998;2022-08-04T20:58:47;24.30;50.40
1453;DHT22;720;47.738;7.998;2022-08-04T21:01:13;24.20;51.10
1453;DHT22;720;47.738;7.998;2022-08-04T21:03:38;24.30;50.80
1453;DHT22;720;47.738;7.998;2022-08-04T21:06:23;24.30;51.40
1453;DHT22;720;47.738;7.998;2022-08-04T21:08:48;24.30;50.60
1453;DHT22;720;47.738;7.998;2022-08-04T21:11:15;24.30;51.10